Time;durP1;ratioP1;P1;durP2;ratioP2;P2;SDS_P1;SDS_P2;PMS_P1;PMS_P2;Temp;Humidity;BMP_temperature;BMP_pressure;BME280_temperature;BME280_humidity;BME280_pressure;Samples;Min_cycle;Max_cycle;Signal;HPM_P1;HPM_P2
2024/03/18 00:02:02;;;;;;;10.10;9.30;;;10.80;99.90;;;;;;4998740;28;21753;-69
2024/03/18 00:04:28;;;;;;;11.40;8.70;;;10.80;99.90;;;;;;4997095;28;20543;-69
2024/03/18 00:06:53;;;;;;;11.20;9.50;;;10.80;99.90;;;;;;4987217;28;20450;-69
2024/03/18 00:09:19;;;;;;;10.10;9.10;;;10.80;99.90;;;;;;5001259;28;20245;-70
2024/03/18 00:11:44;;;;;;;10.43;8.73;;;10.80;99.90;;;;;;4998014;28;20577;-69
2024/03/18 00:14:10;;;;;;;9.90;9.10;;;10.80;99.90;;;;;;5001657;28;20184;-70
2024/03/18 00:16:36;;;;;;;8.70;8.00;;;10.90;99.90;;;;;;4994226;28;20305;-70
2024/03/18 00:19:01;;;;;;;10.13;9.10;;;10.80;99.90;;;;;;4991466;28;20271;-70
2024/03/18 00:21:27;;;;;;;9.93;8.93;;;10.80;99.90;;;;;;4983981;28;20184;-69
2024/03/18 00:23:52;;;;;;;10.20;9.33;;;10.80;99.90;;;;;;4999755;28;20291;-71
2024/03/18 00:26:18;;;;;;;11.90;9.80;;;10.70;99.90;;;;;;5001487;28;20359;-69
2024/03/18 00:28:43;;;;;;;10.90;9.80;;;10.60;99.90;;;;;;4991710;28;20208;-69
2024/03/18 00:31:10;;;;;;;11.80;10.63;;;10.60;99.90;;;;;;4993695;28;20612;-69
2024/03/18 00:33:36;;;;;;;10.20;9.00;;;10.70;99.90;;;;;;5004814;28;20234;-70
2024/03/18 00:36:02;;;;;;;11.43;10.20;;;10.70;99.90;;;;;;4991076;28;20856;-70
2024/03/18 00:38:27;;;;;;;12.40;9.90;;;10.70;99.90;;;;;;4991423;28;20183;-69
2024/03/18 00:43:37;;;;;;;10.20;9.23;;;10.80;99.90;;;;;;4986696;28;20742;-69
2024/03/18 00:46:03;;;;;;;9.40;8.43;;;10.70;99.90;;;;;;4993169;28;20462;-69
2024/03/18 00:48:29;;;;;;;10.27;9.27;;;10.80;99.90;;;;;;4999423;28;20426;-70
2024/03/18 00:50:55;;;;;;;9.07;8.10;;;10.70;99.90;;;;;;4992770;28;20230;-69
2024/03/18 00:53:20;;;;;;;10.50;9.40;;;10.60;99.90;;;;;;5001593;28;20935;-69
2024/03/18 00:55:46;;;;;;;10.53;9.57;;;10.60;99.90;;;;;;5005789;28;20191;-69
2024/03/18 00:58:11;;;;;;;10.13;9.13;;;10.60;99.90;;;;;;5005017;28;20191;-70
2024/03/18 01:00:37;;;;;;;16.43;9.97;;;10.60;99.90;;;;;;4995219;28;20323;-69
2024/03/18 01:03:03;;;;;;;12.40;11.10;;;10.60;99.90;;;;;;4998191;28;20290;-69
2024/03/18 01:05:29;;;;;;;12.73;11.30;;;10.60;99.90;;;;;;4993677;28;20183;-69
2024/03/18 01:07:55;;;;;;;11.27;10.27;;;10.60;99.90;;;;;;4994491;28;20561;-70
2024/03/18 01:10:21;;;;;;;11.83;9.67;;;10.60;99.90;;;;;;4994122;28;20176;-70
2024/03/18 01:12:46;;;;;;;9.63;8.73;;;10.60;99.90;;;;;;5002128;28;20605;-69
2024/03/18 01:15:12;;;;;;;11.10;10.10;;;10.70;99.90;;;;;;5000285;28;20187;-69
2024/03/18 01:17:37;;;;;;;11.60;9.90;;;10.70;99.90;;;;;;5000063;28;20286;-71
2024/03/18 01:20:09;;;;;;;10.37;9.40;;;10.70;99.90;;;;;;5002186;28;20184;-69
2024/03/18 01:22:34;;;;;;;11.40;10.40;;;10.60;99.90;;;;;;4991373;28;20207;-69
2024/03/18 01:25:01;;;;;;;10.63;9.63;;;10.60;99.90;;;;;;4999190;28;20449;-70
2024/03/18 01:27:28;;;;;;;12.67;10.70;;;10.60;99.90;;;;;;4992107;28;20187;-70
2024/03/18 01:29:55;;;;;;;11.57;10.50;;;10.60;99.90;;;;;;4999037;28;20435;-69
2024/03/18 01:32:22;;;;;;;11.83;10.63;;;10.60;99.90;;;;;;4993725;28;20440;-70
2024/03/18 01:34:49;;;;;;;12.40;11.00;;;10.50;99.90;;;;;;5001715;28;20432;-69
2024/03/18 01:37:15;;;;;;;11.57;10.47;;;10.50;99.90;;;;;;4996739;28;20508;-69
2024/03/18 01:39:40;;;;;;;12.20;11.00;;;10.50;99.90;;;;;;5000134;28;20433;-69
2024/03/18 01:42:06;;;;;;;11.53;10.33;;;10.50;99.90;;;;;;4995681;28;20641;-69
2024/03/18 01:44:32;;;;;;;11.27;10.07;;;10.60;99.90;;;;;;4998983;28;20208;-70
2024/03/18 01:46:57;;;;;;;12.27;11.10;;;10.60;99.90;;;;;;4997984;28;20187;-69
2024/03/18 01:49:23;;;;;;;12.70;11.50;;;10.50;99.90;;;;;;5002197;28;20176;-69
2024/03/18 01:51:49;;;;;;;12.70;11.57;;;10.50;99.90;;;;;;4993617;28;20203;-70
2024/03/18 01:54:16;;;;;;;11.67;10.43;;;10.50;99.90;;;;;;4996447;28;20187;-70
2024/03/18 01:56:41;;;;;;;11.30;10.30;;;10.60;99.90;;;;;;5002816;28;20458;-69
2024/03/18 01:59:07;;;;;;;11.97;10.77;;;10.50;99.90;;;;;;4995324;28;20966;-70
2024/03/18 02:01:33;;;;;;;13.40;12.10;;;10.50;99.90;;;;;;5000053;28;20171;-70
2024/03/18 02:04:09;;;;;;;12.67;11.40;;;10.50;99.90;;;;;;4993280;28;20215;-69
2024/03/18 02:06:36;;;;;;;10.97;9.97;;;10.50;99.90;;;;;;4992643;28;20672;-69
2024/03/18 02:09:03;;;;;;;14.63;13.20;;;10.50;99.90;;;;;;4998348;28;20419;-70
2024/03/18 02:11:28;;;;;;;16.53;14.83;;;10.60;99.90;;;;;;4994273;28;20411;-69
2024/03/18 02:13:54;;;;;;;10.93;9.83;;;10.60;99.90;;;;;;4986777;28;20438;-70
2024/03/18 02:16:20;;;;;;;11.40;10.43;;;10.70;99.90;;;;;;4994727;28;20285;-69
2024/03/18 02:18:46;;;;;;;11.00;9.90;;;10.70;99.90;;;;;;5009384;28;20516;-68
2024/03/18 02:21:11;;;;;;;13.10;9.67;;;10.60;99.90;;;;;;4995910;28;20283;-68
2024/03/18 02:23:37;;;;;;;12.13;10.93;;;10.70;99.90;;;;;;4992402;28;20241;-70
2024/03/18 02:26:02;;;;;;;13.07;11.70;;;10.70;99.90;;;;;;4996373;28;20199;-68
2024/03/18 02:28:28;;;;;;;11.73;10.60;;;10.70;99.90;;;;;;4997905;28;20176;-69
2024/03/18 02:30:54;;;;;;;11.37;10.40;;;10.60;99.90;;;;;;4994496;28;20226;-69
2024/03/18 02:33:19;;;;;;;12.50;10.90;;;10.60;99.90;;;;;;4993629;28;20176;-68
2024/03/18 02:35:45;;;;;;;10.10;9.07;;;10.60;99.90;;;;;;4992376;28;20291;-68
2024/03/18 02:38:10;;;;;;;11.20;10.20;;;10.70;99.90;;;;;;4999883;28;20184;-70
2024/03/18 02:40:36;;;;;;;12.10;11.00;;;10.60;99.90;;;;;;4993294;28;20185;-68
2024/03/18 02:43:01;;;;;;;11.40;10.30;;;10.60;99.90;;;;;;4997214;28;20238;-69
2024/03/18 02:45:27;;;;;;;11.10;10.10;;;10.50;99.90;;;;;;4998098;28;20180;-70
2024/03/18 02:47:52;;;;;;;10.70;9.70;;;10.60;99.90;;;;;;5006089;28;20182;-69
2024/03/18 02:50:18;;;;;;;12.60;10.80;;;10.50;99.90;;;;;;4989574;28;20238;-68
2024/03/18 02:52:45;;;;;;;11.83;10.73;;;10.50;99.90;;;;;;4992438;28;20230;-69
2024/03/18 02:55:10;;;;;;;10.00;9.20;;;10.60;99.90;;;;;;5005037;28;20225;-69
2024/03/18 02:57:36;;;;;;;12.30;11.10;;;10.60;99.90;;;;;;4995824;28;20572;-69
2024/03/18 03:00:05;;;;;;;10.27;9.23;;;10.60;99.90;;;;;;5002218;28;20184;-69
2024/03/18 03:02:32;;;;;;;11.90;10.53;;;10.50;99.90;;;;;;5012086;28;20171;-69
2024/03/18 03:04:58;;;;;;;10.53;9.53;;;10.50;99.90;;;;;;4991513;28;20423;-68
2024/03/18 03:07:23;;;;;;;13.13;10.07;;;10.40;99.90;;;;;;4990271;28;20440;-69
2024/03/18 03:09:49;;;;;;;10.73;9.60;;;10.40;99.90;;;;;;4992220;28;20287;-69
2024/03/18 03:12:14;;;;;;;11.90;9.20;;;10.40;99.90;;;;;;4994048;28;20652;-69
2024/03/18 03:14:41;;;;;;;11.93;10.73;;;10.40;99.90;;;;;;5003064;28;20184;-68
2024/03/18 03:17:07;;;;;;;11.33;10.23;;;10.30;99.90;;;;;;4998763;28;20200;-69
2024/03/18 03:19:32;;;;;;;11.13;10.13;;;10.40;99.90;;;;;;4992833;28;20477;-69
2024/03/18 03:21:58;;;;;;;11.80;10.73;;;10.40;99.90;;;;;;4989223;28;20488;-69
2024/03/18 03:24:23;;;;;;;11.17;10.07;;;10.40;99.90;;;;;;5000428;28;20230;-69
2024/03/18 03:26:49;;;;;;;12.23;10.97;;;10.40;99.90;;;;;;4995676;28;20207;-69
2024/03/18 03:29:14;;;;;;;13.47;12.17;;;10.30;99.90;;;;;;4978120;28;20587;-68
2024/03/18 03:31:40;;;;;;;13.03;11.93;;;10.30;99.90;;;;;;4990479;28;20195;-69
2024/03/18 03:34:06;;;;;;;12.33;11.23;;;10.40;99.90;;;;;;4996017;28;20184;-68
2024/03/18 03:36:34;;;;;;;11.37;10.30;;;10.40;99.90;;;;;;4997175;28;20461;-69
2024/03/18 03:39:00;;;;;;;11.93;10.77;;;10.40;99.90;;;;;;4996019;28;20184;-68
2024/03/18 03:41:26;;;;;;;11.20;10.00;;;10.50;99.90;;;;;;5003868;28;20507;-69
2024/03/18 03:43:51;;;;;;;11.27;10.07;;;10.50;99.90;;;;;;5004795;28;20198;-69
2024/03/18 03:46:17;;;;;;;10.77;9.77;;;10.60;99.90;;;;;;4998302;28;20201;-69
2024/03/18 03:48:42;;;;;;;10.63;9.63;;;10.60;99.90;;;;;;4995734;28;20182;-70
2024/03/18 03:51:08;;;;;;;11.87;10.33;;;10.60;99.90;;;;;;5002825;28;20187;-69
2024/03/18 03:53:33;;;;;;;9.83;8.83;;;10.50;99.90;;;;;;4996409;28;20663;-69
2024/03/18 03:56:00;;;;;;;9.80;8.90;;;10.50;99.90;;;;;;4999523;28;20289;-69
2024/03/18 03:58:26;;;;;;;9.60;8.60;;;10.60;99.90;;;;;;4996931;28;20179;-68
2024/03/18 04:00:52;;;;;;;10.27;9.27;;;10.50;99.90;;;;;;4994865;28;20955;-68
2024/03/18 04:03:23;;;;;;;9.93;9.03;;;10.50;99.90;;;;;;4999560;28;20484;-69
2024/03/18 04:05:51;;;;;;;11.00;9.90;;;10.40;99.90;;;;;;4998232;28;20451;-70
2024/03/18 04:08:16;;;;;;;11.33;10.33;;;10.40;99.90;;;;;;5000997;28;20422;-69
2024/03/18 04:10:42;;;;;;;11.93;10.73;;;10.40;99.90;;;;;;4991202;28;20470;-68
2024/03/18 04:13:09;;;;;;;11.33;10.23;;;10.30;99.90;;;;;;4998618;28;20187;-69
2024/03/18 04:15:35;;;;;;;10.97;9.37;;;10.30;99.90;;;;;;4991476;28;20220;-70
2024/03/18 04:18:01;;;;;;;11.30;9.30;;;10.30;99.90;;;;;;4997248;28;20862;-68
2024/03/18 04:20:27;;;;;;;11.17;10.20;;;10.30;99.90;;;;;;5003064;28;20206;-68
2024/03/18 04:22:53;;;;;;;11.37;10.17;;;10.30;99.90;;;;;;5003273;28;20286;-69
2024/03/18 04:25:23;;;;;;;11.33;9.90;;;10.20;99.90;;;;;;4993100;28;20509;-68
2024/03/18 04:27:49;;;;;;;11.33;10.23;;;10.20;99.90;;;;;;4997446;28;20461;-68
2024/03/18 04:30:17;;;;;;;11.90;10.70;;;10.20;99.90;;;;;;4995617;28;20991;-69
2024/03/18 04:32:43;;;;;;;13.90;12.60;;;10.10;99.90;;;;;;4998869;28;20183;-69
2024/03/18 04:35:09;;;;;;;11.97;10.90;;;10.10;99.90;;;;;;4976586;28;20784;-69
2024/03/18 04:37:35;;;;;;;12.53;11.23;;;10.10;99.90;;;;;;4986822;28;20458;-69
2024/03/18 04:40:11;;;;;;;11.07;10.17;;;10.10;99.90;;;;;;5004093;28;20210;-68
2024/03/18 04:42:39;;;;;;;11.57;10.40;;;10.10;99.90;;;;;;4994055;28;20194;-71
2024/03/18 04:45:05;;;;;;;12.10;11.10;;;10.20;99.90;;;;;;4997075;28;20439;-69
2024/03/18 04:47:30;;;;;;;12.10;10.50;;;10.20;99.90;;;;;;4994729;28;20959;-69
2024/03/18 04:49:56;;;;;;;12.17;10.90;;;10.30;99.90;;;;;;5002042;28;20438;-69
2024/03/18 04:52:21;;;;;;;12.07;10.40;;;10.30;99.90;;;;;;4997889;28;20175;-69
2024/03/18 04:54:47;;;;;;;11.80;10.60;;;10.30;99.90;;;;;;5005398;28;20577;-69
2024/03/18 04:57:12;;;;;;;11.33;10.23;;;10.30;99.90;;;;;;4991691;28;20204;-69
2024/03/18 04:59:39;;;;;;;12.73;9.07;;;10.30;99.90;;;;;;5000385;28;20683;-68
2024/03/18 05:02:05;;;;;;;11.70;10.53;;;10.30;99.90;;;;;;4998559;28;20231;-69
2024/03/18 05:04:31;;;;;;;10.67;9.60;;;10.30;99.90;;;;;;4995059;28;20866;-68
2024/03/18 05:06:57;;;;;;;10.93;9.83;;;10.30;99.90;;;;;;4991664;28;20446;-68
2024/03/18 05:09:23;;;;;;;10.80;9.80;;;10.20;99.90;;;;;;4984215;28;20443;-70
2024/03/18 05:11:49;;;;;;;12.30;11.10;;;10.10;99.90;;;;;;5002614;28;20446;-69
2024/03/18 05:14:14;;;;;;;13.73;10.83;;;10.00;99.90;;;;;;5005886;28;20919;-69
2024/03/18 05:16:40;;;;;;;11.40;10.10;;;10.10;99.90;;;;;;5001817;28;20602;-69
2024/03/18 05:19:05;;;;;;;11.33;9.10;;;10.10;99.90;;;;;;5002671;28;20552;-69
2024/03/18 05:21:32;;;;;;;10.57;9.53;;;10.20;99.90;;;;;;5014562;28;20499;-69
2024/03/18 05:23:57;;;;;;;10.33;9.30;;;10.20;99.90;;;;;;4997198;28;20207;-69
2024/03/18 05:26:23;;;;;;;10.53;9.57;;;10.20;99.90;;;;;;4991002;28;20994;-69
2024/03/18 05:28:48;;;;;;;10.67;9.63;;;10.30;99.90;;;;;;5002723;28;20205;-69
2024/03/18 05:31:14;;;;;;;11.07;9.87;;;10.30;99.90;;;;;;4993596;28;20648;-68
2024/03/18 05:33:39;;;;;;;10.60;9.60;;;10.40;99.90;;;;;;5000049;28;20182;-70
2024/03/18 05:36:05;;;;;;;16.13;11.07;;;10.50;99.90;;;;;;4993986;28;20218;-68
2024/03/18 05:38:31;;;;;;;11.40;10.40;;;10.40;99.90;;;;;;4999973;28;20182;-69
2024/03/18 05:40:56;;;;;;;11.93;10.70;;;10.30;99.90;;;;;;4999666;28;20187;-69
2024/03/18 05:43:22;;;;;;;11.20;10.10;;;10.40;99.90;;;;;;5000182;28;20203;-69
2024/03/18 05:45:47;;;;;;;12.23;10.43;;;10.40;99.90;;;;;;4993605;28;20199;-69
2024/03/18 05:48:13;;;;;;;9.60;8.70;;;10.40;99.90;;;;;;5001174;28;20179;-69
2024/03/18 05:50:39;;;;;;;11.53;10.47;;;10.40;99.90;;;;;;5013993;28;20707;-68
2024/03/18 05:53:04;;;;;;;9.80;9.00;;;10.40;99.90;;;;;;5003236;28;20234;-69
2024/03/18 05:55:30;;;;;;;10.30;8.73;;;10.40;99.90;;;;;;4974925;28;20420;-69
2024/03/18 05:57:57;;;;;;;10.47;9.57;;;10.50;99.90;;;;;;5031496;23;20281;-71
2024/03/18 06:00:24;;;;;;;11.20;10.07;;;10.40;99.90;;;;;;5013567;28;20190;-71
2024/03/18 06:02:49;;;;;;;9.73;8.63;;;10.40;99.90;;;;;;5013769;28;20460;-72
2024/03/18 06:05:15;;;;;;;9.90;9.00;;;10.40;99.90;;;;;;5013884;28;20505;-71
2024/03/18 06:07:42;;;;;;;11.30;10.30;;;10.40;99.90;;;;;;5012903;28;20863;-71
2024/03/18 06:10:08;;;;;;;10.97;9.87;;;10.40;99.90;;;;;;5013821;28;20241;-71
2024/03/18 06:12:33;;;;;;;10.83;9.73;;;10.30;99.90;;;;;;5013807;28;20835;-71
2024/03/18 06:14:59;;;;;;;11.77;10.60;;;10.30;99.90;;;;;;5013703;28;20425;-71
2024/03/18 06:17:25;;;;;;;10.50;9.50;;;10.30;99.90;;;;;;5013028;28;20218;-71
2024/03/18 06:19:57;;;;;;;11.50;10.20;;;10.40;99.90;;;;;;5013414;28;20484;-71
2024/03/18 06:22:23;;;;;;;11.67;10.67;;;10.50;99.90;;;;;;5013592;28;20171;-71
2024/03/18 06:27:33;;;;;;;11.57;10.47;;;10.40;99.90;;;;;;5013051;28;20458;-71
2024/03/18 06:29:59;;;;;;;11.40;10.10;;;10.50;99.90;;;;;;5013475;28;20418;-71
2024/03/18 06:32:25;;;;;;;11.87;10.30;;;10.50;99.90;;;;;;5013019;28;20554;-71
2024/03/18 06:34:50;;;;;;;11.47;10.20;;;10.60;99.90;;;;;;5013290;28;20181;-71
2024/03/18 06:37:17;;;;;;;11.57;10.47;;;10.60;99.90;;;;;;5011206;28;20194;-71
2024/03/18 06:39:43;;;;;;;9.50;8.70;;;10.70;99.90;;;;;;5013007;28;20171;-71
2024/03/18 06:42:09;;;;;;;10.70;9.80;;;10.70;99.90;;;;;;5013263;28;20417;-71
2024/03/18 06:44:34;;;;;;;11.07;9.90;;;10.80;99.90;;;;;;5013179;28;20202;-71
2024/03/18 06:47:00;;;;;;;9.47;8.67;;;10.80;99.90;;;;;;5012332;28;20496;-70
2024/03/18 06:49:25;;;;;;;13.53;11.30;;;10.80;99.90;;;;;;5012400;28;20701;-70
2024/03/18 06:51:51;;;;;;;13.07;10.77;;;10.80;99.90;;;;;;5013109;28;20209;-70
2024/03/18 06:54:17;;;;;;;11.10;10.10;;;10.80;99.90;;;;;;5012758;28;20660;-70
2024/03/18 06:56:42;;;;;;;13.00;10.50;;;10.80;99.90;;;;;;5012081;28;20249;-71
2024/03/18 06:59:08;;;;;;;13.73;10.73;;;10.80;99.90;;;;;;5012790;28;20175;-70
2024/03/18 07:01:33;;;;;;;11.80;10.70;;;10.80;99.90;;;;;;5012930;28;20179;-71
2024/03/18 07:03:59;;;;;;;13.63;12.23;;;10.80;99.90;;;;;;5012612;28;20248;-70
2024/03/18 07:06:25;;;;;;;13.43;12.10;;;10.90;99.90;;;;;;5012378;28;20560;-70
2024/03/18 07:08:50;;;;;;;11.03;9.87;;;10.90;99.90;;;;;;5012289;28;20450;-70
2024/03/18 07:11:16;;;;;;;11.73;10.80;;;10.90;99.90;;;;;;5012550;28;20221;-70
2024/03/18 07:13:42;;;;;;;12.20;10.53;;;10.90;99.90;;;;;;5012808;28;20171;-70
2024/03/18 07:16:07;;;;;;;12.30;10.73;;;10.90;99.90;;;;;;5012631;28;20189;-70
2024/03/18 07:18:33;;;;;;;11.70;10.30;;;10.90;99.90;;;;;;5011833;28;20422;-70
2024/03/18 07:20:58;;;;;;;11.80;10.60;;;10.90;99.90;;;;;;5012462;28;20179;-70
2024/03/18 07:23:24;;;;;;;12.23;11.17;;;10.90;99.90;;;;;;5012369;28;20598;-70
2024/03/18 07:25:50;;;;;;;14.90;12.40;;;10.90;99.90;;;;;;5010836;28;20179;-70
2024/03/18 07:28:16;;;;;;;13.20;11.90;;;10.90;99.90;;;;;;5011792;28;20171;-70
2024/03/18 07:30:47;;;;;;;11.83;10.80;;;10.90;99.90;;;;;;5012531;28;20445;-70
2024/03/18 07:33:14;;;;;;;12.63;11.53;;;10.90;99.90;;;;;;5011046;28;20214;-70
2024/03/18 07:35:39;;;;;;;14.10;11.83;;;10.70;99.90;;;;;;5012470;28;20472;-69
2024/03/18 07:38:05;;;;;;;15.77;13.53;;;10.60;99.90;;;;;;5011525;28;20450;-70
2024/03/18 07:40:30;;;;;;;13.83;12.47;;;10.50;99.90;;;;;;5012198;28;20648;-69
2024/03/18 07:42:56;;;;;;;14.63;13.20;;;10.40;99.90;;;;;;5012312;28;20195;-69
2024/03/18 07:45:21;;;;;;;14.70;13.40;;;10.40;99.90;;;;;;5012249;28;20258;-69
2024/03/18 07:47:47;;;;;;;15.63;14.00;;;10.40;99.90;;;;;;5010785;28;20198;-70
2024/03/18 07:50:13;;;;;;;14.00;12.70;;;10.40;99.90;;;;;;5002249;28;20618;-70
2024/03/18 07:52:38;;;;;;;14.83;13.43;;;10.50;99.90;;;;;;5010299;28;20179;-69
2024/03/18 07:55:04;;;;;;;14.33;12.97;;;10.40;99.90;;;;;;5010150;28;20182;-69
2024/03/18 07:57:30;;;;;;;13.90;12.60;;;10.30;99.90;;;;;;5010311;28;20698;-69
2024/03/18 07:59:55;;;;;;;13.87;12.50;;;10.30;99.90;;;;;;5013892;28;20425;-70
2024/03/18 08:02:22;;;;;;;13.67;12.27;;;10.30;99.90;;;;;;5014612;28;20691;-70
2024/03/18 08:04:49;;;;;;;14.00;12.60;;;10.30;99.90;;;;;;5014275;28;20204;-70
2024/03/18 08:07:15;;;;;;;14.30;12.77;;;10.40;99.90;;;;;;5014893;28;20496;-70
2024/03/18 08:09:40;;;;;;;12.80;11.50;;;10.40;99.90;;;;;;5015566;28;20429;-70
2024/03/18 08:12:06;;;;;;;12.77;11.00;;;10.50;99.90;;;;;;5014954;28;20233;-70
2024/03/18 08:14:33;;;;;;;19.43;12.40;;;10.50;99.90;;;;;;5015843;28;20205;-70
2024/03/18 08:17:04;;;;;;;11.77;10.50;;;10.60;99.90;;;;;;5014598;28;20194;-70
2024/03/18 08:19:29;;;;;;;13.57;12.00;;;10.50;99.90;;;;;;5015534;28;20489;-70
2024/03/18 08:21:55;;;;;;;14.97;13.57;;;10.50;99.90;;;;;;5015047;28;21021;-70
2024/03/18 08:24:21;;;;;;;16.90;12.80;;;10.40;99.90;;;;;;5015125;28;20206;-70
2024/03/18 08:26:46;;;;;;;12.40;11.07;;;10.40;99.90;;;;;;5013979;28;20210;-69
2024/03/18 08:29:12;;;;;;;14.10;12.30;;;10.50;99.90;;;;;;5015341;28;21029;-70
2024/03/18 08:31:37;;;;;;;13.30;11.67;;;10.50;99.90;;;;;;5015198;28;20208;-70
2024/03/18 08:34:03;;;;;;;17.10;13.50;;;10.50;99.90;;;;;;5015177;28;20186;-69
2024/03/18 08:36:28;;;;;;;13.23;11.57;;;10.60;99.90;;;;;;5014173;28;20672;-70
2024/03/18 08:38:57;;;;;;;13.80;12.20;;;10.60;99.90;;;;;;5014933;28;20174;-70
2024/03/18 08:41:22;;;;;;;13.10;11.77;;;10.60;99.90;;;;;;5014808;28;20226;-70
2024/03/18 08:43:48;;;;;;;12.30;11.20;;;10.60;99.90;;;;;;5015214;28;20462;-69
2024/03/18 08:46:13;;;;;;;12.30;11.10;;;10.70;99.90;;;;;;5014404;28;20191;-70
2024/03/18 08:48:39;;;;;;;13.70;12.40;;;10.80;99.90;;;;;;5014311;28;20247;-69
2024/03/18 08:51:04;;;;;;;13.50;12.10;;;10.80;99.90;;;;;;5014723;28;20183;-69
2024/03/18 08:53:30;;;;;;;12.60;11.37;;;10.80;99.90;;;;;;5014914;28;20538;-69
2024/03/18 08:55:56;;;;;;;13.27;11.80;;;10.90;99.90;;;;;;5014537;28;20194;-69
2024/03/18 08:58:21;;;;;;;13.87;12.47;;;10.90;99.90;;;;;;5013709;28;20440;-70
2024/03/18 09:00:48;;;;;;;12.73;11.37;;;10.90;99.90;;;;;;5014270;28;20179;-69
2024/03/18 09:03:14;;;;;;;13.13;11.33;;;11.00;99.90;;;;;;5014633;28;20195;-70
2024/03/18 09:05:39;;;;;;;14.13;12.70;;;11.10;99.90;;;;;;5014523;28;20460;-69
2024/03/18 09:08:05;;;;;;;12.87;11.57;;;11.20;99.90;;;;;;5013281;28;20205;-69
2024/03/18 09:10:31;;;;;;;14.77;13.47;;;11.10;99.90;;;;;;5013934;28;20516;-69
2024/03/18 09:12:58;;;;;;;13.90;10.00;;;11.20;99.90;;;;;;5014229;28;20200;-69
2024/03/18 09:15:24;;;;;;;11.47;10.47;;;11.20;99.90;;;;;;5014458;28;20488;-69
2024/03/18 09:17:49;;;;;;;13.23;10.47;;;11.20;99.90;;;;;;5013555;28;20855;-69
2024/03/18 09:20:16;;;;;;;11.43;9.20;;;11.30;99.90;;;;;;5014020;28;20175;-69
2024/03/18 09:22:43;;;;;;;11.17;9.80;;;11.30;99.90;;;;;;5013921;28;20183;-69
2024/03/18 09:25:09;;;;;;;10.53;9.53;;;11.20;99.90;;;;;;5014414;28;20774;-69
2024/03/18 09:27:35;;;;;;;11.50;9.57;;;11.30;99.90;;;;;;5012897;28;20453;-69
2024/03/18 09:30:01;;;;;;;9.73;8.83;;;11.30;99.90;;;;;;5014072;28;20438;-69
2024/03/18 09:32:26;;;;;;;10.67;8.60;;;11.20;99.90;;;;;;5013967;28;20422;-70
2024/03/18 09:34:52;;;;;;;8.90;8.10;;;11.30;99.90;;;;;;5013894;28;20187;-70
2024/03/18 09:37:18;;;;;;;10.30;9.20;;;11.40;99.90;;;;;;5013561;28;20191;-69
2024/03/18 09:39:43;;;;;;;12.27;9.33;;;11.50;99.90;;;;;;5012047;28;20257;-69
2024/03/18 09:42:10;;;;;;;10.53;8.53;;;11.60;99.90;;;;;;5013758;28;20183;-69
2024/03/18 09:44:36;;;;;;;9.73;8.10;;;11.70;99.90;;;;;;5013715;28;20206;-69
2024/03/18 09:47:01;;;;;;;9.00;8.10;;;11.70;99.90;;;;;;5013130;28;20793;-69
2024/03/18 09:49:27;;;;;;;8.10;7.40;;;11.80;99.90;;;;;;5013475;28;20202;-69
2024/03/18 09:51:54;;;;;;;8.57;7.53;;;11.80;99.90;;;;;;5013833;28;20179;-69
2024/03/18 09:54:20;;;;;;;8.30;7.40;;;11.90;99.90;;;;;;5013491;28;20249;-69
2024/03/18 09:56:55;;;;;;;8.50;7.80;;;11.90;99.90;;;;;;5012485;28;20469;-69
2024/03/18 09:59:20;;;;;;;11.47;8.47;;;11.80;99.90;;;;;;4997970;28;20433;-69
2024/03/18 10:01:46;;;;;;;8.90;7.50;;;11.80;99.90;;;;;;5012995;28;20440;-68
2024/03/18 10:04:12;;;;;;;8.23;6.40;;;11.90;99.90;;;;;;5012985;28;20640;-68
2024/03/18 10:06:39;;;;;;;7.17;6.47;;;12.00;99.90;;;;;;5000319;28;20262;-66
2024/03/18 10:09:05;;;;;;;9.70;7.23;;;12.10;99.90;;;;;;4994199;28;20262;-70
2024/03/18 10:11:30;;;;;;;9.30;7.20;;;12.20;99.90;;;;;;5013254;28;20501;-70
2024/03/18 10:13:56;;;;;;;15.17;12.23;;;12.10;99.90;;;;;;5013495;28;20171;-68
2024/03/18 10:16:22;;;;;;;9.40;7.83;;;12.00;99.90;;;;;;5013077;28;20668;-68
2024/03/18 10:18:47;;;;;;;12.63;7.07;;;12.10;99.90;;;;;;5012019;28;20285;-67
2024/03/18 10:21:13;;;;;;;7.30;6.60;;;12.10;99.90;;;;;;5013266;28;20513;-69
2024/03/18 10:23:45;;;;;;;8.07;6.60;;;12.20;99.90;;;;;;5011873;28;20281;-69
2024/03/18 10:26:15;;;;;;;9.40;7.30;;;12.20;99.90;;;;;;5013385;28;20641;-69
2024/03/18 10:28:40;;;;;;;8.00;6.93;;;12.40;99.90;;;;;;5012846;28;20935;-69
2024/03/18 10:31:08;;;;;;;9.17;7.47;;;12.50;99.90;;;;;;5012958;28;20462;-69
2024/03/18 10:33:35;;;;;;;7.80;7.10;;;12.60;99.90;;;;;;5013245;28;20174;-69
2024/03/18 10:36:03;;;;;;;7.37;6.67;;;12.60;99.90;;;;;;5012705;28;20468;-69
2024/03/18 10:38:33;;;;;;;9.30;8.37;;;12.70;99.90;;;;;;5011936;28;20432;-69
2024/03/18 10:41:00;;;;;;;15.80;13.90;;;12.70;99.90;;;;;;5013228;28;20903;-69
2024/03/18 10:43:36;;;;;;;10.30;8.73;;;12.80;99.90;;;;;;5012721;28;20545;-70
2024/03/18 10:46:02;;;;;;;7.73;6.97;;;12.80;99.90;;;;;;5012890;28;20420;-69
2024/03/18 10:48:28;;;;;;;11.47;8.20;;;12.90;99.90;;;;;;5012182;28;20803;-70
2024/03/18 10:50:55;;;;;;;8.33;7.30;;;12.80;99.90;;;;;;5012296;28;20417;-69
2024/03/18 10:53:22;;;;;;;11.30;7.37;;;12.80;99.90;;;;;;5012482;28;20437;-69
2024/03/18 10:55:49;;;;;;;7.37;6.67;;;12.80;99.90;;;;;;5012972;28;20508;-69
2024/03/18 10:58:16;;;;;;;8.10;7.00;;;12.80;99.90;;;;;;4998166;28;20477;-70
2024/03/18 11:00:42;;;;;;;7.70;7.00;;;12.80;99.90;;;;;;5002747;28;20917;-69
2024/03/18 11:03:15;;;;;;;6.97;6.47;;;12.80;99.90;;;;;;5009910;28;20543;-69
2024/03/18 11:05:49;;;;;;;6.77;6.00;;;12.90;99.90;;;;;;5012190;28;20452;-70
2024/03/18 11:08:17;;;;;;;9.93;7.40;;;13.10;99.90;;;;;;5011097;28;20417;-70
2024/03/18 11:10:43;;;;;;;8.20;7.43;;;12.90;99.90;;;;;;5012342;28;20484;-70
2024/03/18 11:13:13;;;;;;;8.00;6.97;;;12.90;99.90;;;;;;5011786;28;20429;-70
2024/03/18 11:15:41;;;;;;;6.70;5.80;;;13.00;99.90;;;;;;5012557;28;20515;-70
2024/03/18 11:18:08;;;;;;;7.87;6.43;;;13.00;99.90;;;;;;5011770;28;20473;-70
2024/03/18 11:20:47;;;;;;;8.17;7.37;;;12.90;99.90;;;;;;5011873;28;20442;-70
2024/03/18 11:23:21;;;;;;;8.40;7.37;;;12.80;99.90;;;;;;5012218;28;20507;-70
2024/03/18 11:25:54;;;;;;;9.23;7.70;;;12.90;99.90;;;;;;5012557;28;20516;-70
2024/03/18 11:28:21;;;;;;;8.77;7.90;;;12.90;99.90;;;;;;5010964;28;20425;-70
2024/03/18 11:30:49;;;;;;;8.40;6.20;;;13.00;99.90;;;;;;5012480;28;20447;-70
2024/03/18 11:33:15;;;;;;;9.10;7.00;;;13.00;99.90;;;;;;5012275;28;20433;-70
2024/03/18 11:35:42;;;;;;;9.10;8.30;;;12.90;99.90;;;;;;5011363;28;20426;-70
2024/03/18 11:38:15;;;;;;;10.27;9.27;;;12.70;99.90;;;;;;5011561;28;20477;-70
2024/03/18 11:40:41;;;;;;;9.30;7.37;;;12.50;99.90;;;;;;5010583;28;20931;-70
2024/03/18 11:43:07;;;;;;;7.67;7.10;;;12.50;99.90;;;;;;5011905;28;20507;-70
2024/03/18 11:45:34;;;;;;;8.10;7.10;;;12.50;99.90;;;;;;5012240;28;20668;-70
2024/03/18 11:48:04;;;;;;;8.30;6.67;;;12.50;99.90;;;;;;5011245;28;20805;-70
2024/03/18 11:50:35;;;;;;;6.20;5.60;;;12.60;99.90;;;;;;5012108;28;20448;-70
2024/03/18 11:53:04;;;;;;;7.40;6.30;;;12.70;99.90;;;;;;5011977;28;20509;-70
2024/03/18 11:55:33;;;;;;;6.03;5.40;;;12.60;99.90;;;;;;5011811;28;20481;-70
2024/03/18 11:57:59;;;;;;;5.83;5.23;;;12.60;99.90;;;;;;5012145;28;20468;-70
2024/03/18 12:00:25;;;;;;;6.73;4.70;;;12.50;99.90;;;;;;5012019;28;20426;-68
2024/03/18 12:02:50;;;;;;;5.47;4.20;;;12.40;99.90;;;;;;5011707;28;20210;-68
2024/03/18 12:05:16;;;;;;;5.00;4.60;;;12.30;99.90;;;;;;5014754;28;20427;-68
2024/03/18 12:07:43;;;;;;;7.00;5.07;;;12.30;99.90;;;;;;5011420;28;20998;-69
2024/03/18 12:10:10;;;;;;;5.13;4.70;;;12.20;99.90;;;;;;5011893;28;20782;-68
2024/03/18 12:12:37;;;;;;;7.30;6.60;;;12.20;99.90;;;;;;5023075;28;20440;-69
2024/03/18 12:15:04;;;;;;;9.80;5.90;;;12.30;99.90;;;;;;5016592;28;20516;-69
2024/03/18 12:17:31;;;;;;;6.00;5.50;;;12.30;99.90;;;;;;5011012;28;20966;-69
2024/03/18 12:20:00;;;;;;;6.07;5.50;;;12.20;99.90;;;;;;5009545;28;20438;-68
2024/03/18 12:22:28;;;;;;;9.03;8.13;;;12.30;99.90;;;;;;5011937;28;20953;-69
2024/03/18 12:30:31;;;;;;;8.57;7.50;;;12.10;99.90;;;;;;5012130;28;20421;-69
2024/03/18 12:32:58;;;;;;;7.23;6.53;;;12.00;99.90;;;;;;5011935;28;20496;-69
2024/03/18 12:35:24;;;;;;;8.30;7.50;;;11.90;99.90;;;;;;5011787;28;20475;-69
2024/03/18 12:37:52;;;;;;;6.13;5.57;;;11.90;99.90;;;;;;5010662;28;20454;-69
2024/03/18 12:40:18;;;;;;;7.37;6.20;;;12.00;99.90;;;;;;5011902;28;20225;-69
2024/03/18 12:42:49;;;;;;;7.43;6.57;;;12.00;99.90;;;;;;5011829;28;20409;-71